createdAt,value
2017-04-04T00:00:00.445Z,58.67
2017-04-04T00:00:40.926Z,58.67
2017-04-04T00:01:21.421Z,58.67
2017-04-04T00:02:01.912Z,58.67
2017-04-04T00:02:42.426Z,58.48
2017-04-04T00:03:22.903Z,58.67
2017-04-04T00:04:03.437Z,58.67
2017-04-04T00:04:43.918Z,58.86
2017-04-04T00:05:24.421Z,58.58
2017-04-04T00:06:04.914Z,58.86
2017-04-04T00:06:45.369Z,58.86
2017-04-04T00:07:25.870Z,58.67
2017-04-04T00:08:06.347Z,59.15
2017-04-04T00:08:46.849Z,58.95
2017-04-04T00:09:27.343Z,58.86
2017-04-04T00:10:07.826Z,58.95
2017-04-04T00:10:48.323Z,59.24
2017-04-04T00:11:28.812Z,59.63
2017-04-04T00:12:09.321Z,59.72
2017-04-04T00:12:49.841Z,59.31
2017-04-04T00:13:30.411Z,59.78
2017-04-04T00:14:10.851Z,59.98
2017-04-04T00:14:51.347Z,59.88
2017-04-04T00:15:31.865Z,60.07
2017-04-04T00:16:12.311Z,59.88
2017-04-04T00:16:52.795Z,60.1
2017-04-04T00:17:33.822Z,59.91
2017-04-04T00:18:13.803Z,59.53
2017-04-04T00:18:54.341Z,59.24
2017-04-04T00:19:34.811Z,59.44
2017-04-04T00:20:15.320Z,59.63
2017-04-04T00:20:55.801Z,59.63
2017-04-04T00:21:36.374Z,59.59
2017-04-04T00:22:16.882Z,59.88
2017-04-04T00:22:57.357Z,59.63
2017-04-04T00:23:37.858Z,60.1
2017-04-04T00:24:18.357Z,60.01
2017-04-04T00:24:58.864Z,59.72
2017-04-04T00:25:39.372Z,59.63
2017-04-04T00:26:19.861Z,59.63
2017-04-04T00:27:00.362Z,59.72
2017-04-04T00:27:40.864Z,59.72
2017-04-04T00:28:21.382Z,59.81
2017-04-04T00:29:01.873Z,59.59
2017-04-04T00:29:42.378Z,59.31
2017-04-04T00:30:22.859Z,59.41
2017-04-04T00:31:03.367Z,59.59
2017-04-04T00:31:43.907Z,59.88
2017-04-04T00:32:24.403Z,59.78
2017-04-04T00:33:04.859Z,59.98
2017-04-04T00:33:45.396Z,59.72
2017-04-04T00:34:25.878Z,59.63
2017-04-04T00:35:06.370Z,59.72
2017-04-04T00:35:46.883Z,59.53
2017-04-04T00:36:27.397Z,59.34
2017-04-04T00:37:07.894Z,59.91
2017-04-04T00:37:48.391Z,60.1
2017-04-04T00:38:28.902Z,60.1
2017-04-04T00:39:09.394Z,59.44
2017-04-04T00:39:49.904Z,59.63
2017-04-04T00:40:30.370Z,59.72
2017-04-04T00:41:10.894Z,59.72
2017-04-04T00:41:51.417Z,59.72
2017-04-04T00:42:31.942Z,59.53
2017-04-04T00:43:12.438Z,59.72
2017-04-04T00:43:52.975Z,59.53
2017-04-04T00:44:33.449Z,59.72
2017-04-04T00:45:13.949Z,59.63
2017-04-04T00:45:54.443Z,59.72
2017-04-04T00:46:34.944Z,59.59
2017-04-04T00:47:15.430Z,59.59
2017-04-04T00:47:55.913Z,59.59
2017-04-04T00:48:36.404Z,59.69
2017-04-04T00:49:16.920Z,59.63
2017-04-04T00:49:57.399Z,59.53
2017-04-04T00:50:37.902Z,59.59
2017-04-04T00:51:18.390Z,60.07
2017-04-04T00:51:58.879Z,60.07
2017-04-04T00:52:39.394Z,59.98
2017-04-04T00:53:19.890Z,59.88
2017-04-04T00:54:00.417Z,59.59
2017-04-04T00:54:40.854Z,60.07
2017-04-04T00:55:21.386Z,59.98
2017-04-04T00:56:01.839Z,59.98
2017-04-04T00:56:42.419Z,59.88
2017-04-04T00:57:22.959Z,59.98
2017-04-04T00:58:03.436Z,59.98
2017-04-04T00:58:43.899Z,59.88
2017-04-04T00:59:24.395Z,59.69
2017-04-04T01:00:04.873Z,59.88
2017-04-04T01:00:45.407Z,59.98
2017-04-04T01:01:25.866Z,59.88
2017-04-04T01:02:06.339Z,60.01
2017-04-04T01:02:46.826Z,59.98
2017-04-04T01:03:27.331Z,60.07
2017-04-04T01:04:07.848Z,59.88
2017-04-04T01:04:48.343Z,59.88
2017-04-04T01:05:28.868Z,59.98
2017-04-04T01:06:09.339Z,59.98
2017-04-04T01:06:49.822Z,60.64
2017-04-04T01:07:30.321Z,60.64
2017-04-04T01:08:10.949Z,60.9
2017-04-04T01:08:51.405Z,61.1
2017-04-04T01:09:31.908Z,61.29
2017-04-04T01:10:12.398Z,61.41
2017-04-04T01:10:52.927Z,61.1
2017-04-04T01:11:33.420Z,61.32
2017-04-04T01:12:13.886Z,61.13
2017-04-04T01:12:54.409Z,61.51
2017-04-04T01:13:34.904Z,61.19
2017-04-04T01:14:15.396Z,61.22
2017-04-04T01:14:55.875Z,61.03
2017-04-04T01:15:36.424Z,61.13
2017-04-04T01:16:16.895Z,61.13
2017-04-04T01:16:57.369Z,60.93
2017-04-04T01:17:37.850Z,61.32
2017-04-04T01:18:18.381Z,61.03
2017-04-04T01:18:58.893Z,61.22
2017-04-04T01:19:39.409Z,61.03
2017-04-04T01:20:19.902Z,61.13
2017-04-04T01:21:00.351Z,61.22
2017-04-04T01:21:40.849Z,61.13
2017-04-04T01:22:21.366Z,61.22
2017-04-04T01:23:01.870Z,61.51
2017-04-04T01:23:42.384Z,61.51
2017-04-04T01:24:22.944Z,61.22
2017-04-04T01:25:03.498Z,61.22
2017-04-04T01:25:43.999Z,61.32
2017-04-04T01:26:24.492Z,61.32
2017-04-04T01:27:04.979Z,61.19
2017-04-04T01:27:45.485Z,61.29
2017-04-04T01:28:25.982Z,61.29
2017-04-04T01:29:06.466Z,61.57
2017-04-04T01:29:46.948Z,62.34
2017-04-04T01:30:27.415Z,62.34
2017-04-04T01:31:07.928Z,62.4
2017-04-04T01:31:48.441Z,62.68
2017-04-04T01:32:28.949Z,62.71
2017-04-04T01:33:09.428Z,62.52
2017-04-04T01:33:49.886Z,62.43
2017-04-04T01:34:30.366Z,62.62
2017-04-04T01:35:10.877Z,62.91
2017-04-04T01:35:51.369Z,62.81
2017-04-04T01:36:31.878Z,62.34
2017-04-04T01:37:12.391Z,62.62
2017-04-04T01:37:52.875Z,62.81
2017-04-04T01:38:33.379Z,62.15
2017-04-04T01:39:13.874Z,62.15
2017-04-04T01:39:54.388Z,62.15
2017-04-04T01:40:34.881Z,62.24
2017-04-04T01:41:15.398Z,62.24
2017-04-04T01:41:55.845Z,62.52
2017-04-04T01:42:36.324Z,62.34
2017-04-04T01:43:16.844Z,62.34
2017-04-04T01:43:57.302Z,62.24
2017-04-04T01:44:37.821Z,62.15
2017-04-04T01:45:18.326Z,62.68
2017-04-04T01:45:58.834Z,62.3
2017-04-04T01:46:39.339Z,62.68
2017-04-04T01:47:19.849Z,62.68
2017-04-04T01:48:00.339Z,63.07
2017-04-04T01:48:40.832Z,63.07
2017-04-04T01:49:21.310Z,63.54
2017-04-04T01:50:01.802Z,63.26
2017-04-04T01:50:42.315Z,63.16
2017-04-04T01:51:22.832Z,63.26
2017-04-04T01:52:03.316Z,63.07
2017-04-04T01:52:43.795Z,62.62
2017-04-04T01:53:24.293Z,62.43
2017-04-04T01:54:04.849Z,62.71
2017-04-04T01:54:45.299Z,62.52
2017-04-04T01:55:25.792Z,62.71
2017-04-04T01:56:06.286Z,62.52
2017-04-04T01:56:46.816Z,62.52
2017-04-04T01:57:27.268Z,62.24
2017-04-04T01:58:07.788Z,62.52
2017-04-04T01:58:48.261Z,62.71
2017-04-04T01:59:28.730Z,62.15
2017-04-04T02:00:09.234Z,62.34
2017-04-04T02:00:49.739Z,61.95
2017-04-04T02:01:30.308Z,62.52
2017-04-04T02:02:10.826Z,62.62
2017-04-04T02:02:51.348Z,62.52
2017-04-04T02:03:31.837Z,62.52
2017-04-04T02:04:12.311Z,62.88
2017-04-04T02:04:52.820Z,62.62
2017-04-04T02:05:33.359Z,62.68
2017-04-04T02:06:13.801Z,62.68
2017-04-04T02:06:54.312Z,62.88
2017-04-04T02:07:34.783Z,63.35
2017-04-04T02:08:15.275Z,63.54
2017-04-04T02:08:55.872Z,63.35
2017-04-04T02:09:36.380Z,64.12
2017-04-04T02:10:16.870Z,64.4
2017-04-04T02:10:57.325Z,64.02
2017-04-04T02:11:37.859Z,63.64
2017-04-04T02:12:18.377Z,63.64
2017-04-04T02:12:58.844Z,63.45
2017-04-04T02:13:39.402Z,63.73
2017-04-04T02:14:19.855Z,63.54
2017-04-04T02:15:00.371Z,64.12
2017-04-04T02:15:40.982Z,63.83
2017-04-04T02:16:21.417Z,63.54
2017-04-04T02:17:01.945Z,64.12
2017-04-04T02:17:42.443Z,64.02
2017-04-04T02:18:22.938Z,64.4
2017-04-04T02:19:03.454Z,64.69
2017-04-04T02:19:43.932Z,64.5
2017-04-04T02:20:24.429Z,65.07
2017-04-04T02:21:04.944Z,64.97
2017-04-04T02:21:45.402Z,65.23
2017-04-04T02:22:25.970Z,65.7
2017-04-04T02:23:06.418Z,65.8
2017-04-04T02:23:46.906Z,64.88
2017-04-04T02:24:27.401Z,64.97
2017-04-04T02:25:07.927Z,65.07
2017-04-04T02:25:48.413Z,64.97
2017-04-04T02:26:28.930Z,65.26
2017-04-04T02:27:09.404Z,65.7
2017-04-04T02:27:49.904Z,65.36
2017-04-04T02:28:30.376Z,65.17
2017-04-04T02:29:10.863Z,64.97
2017-04-04T02:29:51.389Z,64.88
2017-04-04T02:30:31.887Z,65.17
2017-04-04T02:31:12.411Z,64.88
2017-04-04T02:31:52.893Z,64.78
2017-04-04T02:32:33.416Z,64.78
2017-04-04T02:33:13.855Z,64.88
2017-04-04T02:33:54.404Z,65.52
2017-04-04T02:34:34.862Z,65.7
2017-04-04T02:35:15.361Z,65.89
2017-04-04T02:35:55.868Z,65.7
2017-04-04T02:36:36.363Z,65.64
2017-04-04T02:37:16.884Z,65.07
2017-04-04T02:37:57.341Z,65.07
2017-04-04T02:38:37.870Z,65.26
2017-04-04T02:39:18.375Z,64.97
2017-04-04T02:39:58.851Z,65.17
2017-04-04T02:40:39.390Z,64.97
2017-04-04T02:41:19.855Z,64.78
2017-04-04T02:42:00.343Z,64.59
2017-04-04T02:42:40.808Z,64.97
2017-04-04T02:43:21.341Z,65.17
2017-04-04T02:44:01.837Z,66.12
2017-04-04T02:44:42.291Z,66.02
2017-04-04T02:45:22.784Z,65.74
2017-04-04T02:46:03.267Z,65.26
2017-04-04T02:46:43.818Z,65.26
2017-04-04T02:47:24.327Z,65.36
2017-04-04T02:48:04.725Z,65.8
2017-04-04T02:48:45.216Z,65.7
2017-04-04T02:49:25.692Z,65.55
2017-04-04T02:50:06.200Z,65.74
2017-04-04T02:50:46.699Z,65.26
2017-04-04T02:51:27.216Z,64.97
2017-04-04T02:52:07.673Z,65.23
2017-04-04T02:52:48.252Z,65.83
2017-04-04T02:53:28.696Z,65.36
2017-04-04T02:54:09.213Z,65.7
2017-04-04T02:54:49.683Z,66.12
2017-04-04T02:55:30.206Z,66.22
2017-04-04T02:56:10.711Z,66.18
2017-04-04T02:56:51.185Z,66.38
2017-04-04T02:57:31.658Z,66.28
2017-04-04T02:58:12.159Z,66.18
2017-04-04T02:58:52.690Z,66.28
2017-04-04T02:59:33.196Z,66.22
2017-04-04T03:00:13.685Z,66.12
2017-04-04T03:00:54.179Z,65.89
2017-04-04T03:01:34.686Z,65.99
2017-04-04T03:02:15.198Z,66.02
2017-04-04T03:02:55.700Z,65.99
2017-04-04T03:03:36.172Z,66.31
2017-04-04T03:04:16.676Z,66.09
2017-04-04T03:04:57.163Z,66.18
2017-04-04T03:05:37.664Z,65.8
2017-04-04T03:06:18.231Z,66.09
2017-04-04T03:06:58.750Z,66.02
2017-04-04T03:07:39.210Z,66.18
2017-04-04T03:08:19.703Z,65.8
2017-04-04T03:09:00.206Z,66.28
2017-04-04T03:09:40.724Z,66.38
2017-04-04T03:10:21.166Z,65.93
2017-04-04T03:11:01.700Z,66.31
2017-04-04T03:11:42.168Z,65.83
2017-04-04T03:12:22.668Z,66.12
2017-04-04T03:13:03.159Z,66.22
2017-04-04T03:13:43.636Z,66.12
2017-04-04T03:14:24.112Z,65.64
2017-04-04T03:15:04.617Z,65.74
2017-04-04T03:15:45.127Z,66.22
2017-04-04T03:16:25.600Z,66.18
2017-04-04T03:17:06.148Z,65.99
2017-04-04T03:17:46.650Z,65.99
2017-04-04T03:18:27.158Z,66.18
2017-04-04T03:19:07.698Z,65.99
2017-04-04T03:19:48.140Z,65.89
2017-04-04T03:20:28.660Z,66.09
2017-04-04T03:21:09.145Z,66.28
2017-04-04T03:21:49.604Z,66.38
2017-04-04T03:22:30.096Z,66.22
2017-04-04T03:23:10.607Z,65.83
2017-04-04T03:23:51.064Z,66.22
2017-04-04T03:24:31.583Z,65.55
2017-04-04T03:25:12.066Z,65.74
2017-04-04T03:25:52.557Z,65.93
2017-04-04T03:26:33.052Z,65.55
2017-04-04T03:27:13.587Z,65.83
2017-04-04T03:27:54.086Z,66.12
2017-04-04T03:28:34.587Z,65.55
2017-04-04T03:29:15.091Z,65.74
2017-04-04T03:29:55.595Z,66.31
2017-04-04T03:30:36.072Z,65.93
2017-04-04T03:31:16.549Z,66.6
2017-04-04T03:31:57.049Z,66.41
2017-04-04T03:32:37.547Z,66.6
2017-04-04T03:33:18.024Z,66.18
2017-04-04T03:33:58.498Z,66.18
2017-04-04T03:34:39.027Z,66.28
2017-04-04T03:35:19.521Z,67.14
2017-04-04T03:36:00.037Z,67.23
2017-04-04T03:36:40.514Z,67.23
2017-04-04T03:37:21.022Z,67.42
2017-04-04T03:38:01.485Z,67.52
2017-04-04T03:38:41.988Z,67.52
2017-04-04T03:39:22.479Z,67.42
2017-04-04T03:40:02.946Z,67.9
2017-04-04T03:40:43.444Z,67.42
2017-04-04T03:41:23.986Z,67.23
2017-04-04T03:42:04.514Z,67.23
2017-04-04T03:42:44.974Z,66.94
2017-04-04T03:43:25.464Z,66.5
2017-04-04T03:44:05.954Z,66.47
2017-04-04T03:44:46.456Z,67.04
2017-04-04T03:45:26.962Z,66.94
2017-04-04T03:46:07.429Z,66.88
2017-04-04T03:46:47.921Z,66.5
2017-04-04T03:47:28.471Z,66.66
2017-04-04T03:48:08.952Z,66.94
2017-04-04T03:48:49.479Z,67.14
2017-04-04T03:49:30.000Z,67.42
2017-04-04T03:50:10.512Z,67.14
2017-04-04T03:50:51.009Z,66.85
2017-04-04T03:51:31.524Z,66.28
2017-04-04T03:52:12.044Z,67.23
2017-04-04T03:52:52.537Z,67.42
2017-04-04T03:53:33.042Z,67.33
2017-04-04T03:54:13.511Z,67.33
2017-04-04T03:54:54.008Z,67.61
2017-04-04T03:55:34.526Z,67.42
2017-04-04T03:56:15.033Z,67.9
2017-04-04T03:56:55.512Z,68.24
2017-04-04T03:57:36.006Z,68.24
2017-04-04T03:58:16.501Z,68.44
2017-04-04T03:58:57.033Z,69.1
2017-04-04T03:59:37.514Z,69.01
2017-04-04T04:00:18.010Z,68.85
2017-04-04T04:00:58.521Z,68.47
2017-04-04T04:01:38.985Z,67.8
2017-04-04T04:02:19.457Z,68.09
2017-04-04T04:03:00.008Z,67.8
2017-04-04T04:03:40.479Z,67.8
2017-04-04T04:04:20.982Z,67.99
2017-04-04T04:05:01.483Z,67.8
2017-04-04T04:05:41.959Z,68.28
2017-04-04T04:06:22.490Z,68.09
2017-04-04T04:07:02.960Z,68.28
2017-04-04T04:07:43.422Z,67.61
2017-04-04T04:08:23.892Z,68.09
2017-04-04T04:09:04.408Z,68.09
2017-04-04T04:09:44.918Z,67.8
2017-04-04T04:10:25.379Z,68.47
2017-04-04T04:11:05.847Z,67.52
2017-04-04T04:11:46.378Z,67.71
2017-04-04T04:12:26.875Z,67.99
2017-04-04T04:13:07.325Z,68.15
2017-04-04T04:13:47.825Z,68.57
2017-04-04T04:14:28.308Z,68.47
2017-04-04T04:15:08.818Z,67.99
2017-04-04T04:15:49.324Z,67.99
2017-04-04T04:16:29.822Z,68.09
2017-04-04T04:17:10.317Z,68.47
2017-04-04T04:17:50.813Z,68.09
2017-04-04T04:18:31.317Z,67.9
2017-04-04T04:19:11.812Z,67.71
2017-04-04T04:19:52.291Z,67.8
2017-04-04T04:20:32.786Z,67.9
2017-04-04T04:21:13.321Z,68.85
2017-04-04T04:21:53.828Z,68.18
2017-04-04T04:22:34.288Z,68.47
2017-04-04T04:23:14.806Z,69.04
2017-04-04T04:23:55.287Z,68.72
2017-04-04T04:24:35.753Z,68.95
2017-04-04T04:25:16.257Z,68.95
2017-04-04T04:25:56.713Z,68.28
2017-04-04T04:26:37.218Z,68.57
2017-04-04T04:27:17.727Z,67.9
2017-04-04T04:27:58.229Z,67.9
2017-04-04T04:28:38.722Z,67.8
2017-04-04T04:29:19.183Z,67.9
2017-04-04T04:29:59.677Z,68.47
2017-04-04T04:30:40.198Z,68.47
2017-04-04T04:31:20.675Z,69.2
2017-04-04T04:32:01.173Z,69.43
2017-04-04T04:32:41.661Z,68.76
2017-04-04T04:33:22.167Z,68.85
2017-04-04T04:34:02.649Z,68.18
2017-04-04T04:34:43.123Z,68.57
2017-04-04T04:35:23.650Z,68.28
2017-04-04T04:36:04.173Z,67.99
2017-04-04T04:36:44.615Z,67.8
2017-04-04T04:37:25.150Z,67.42
2017-04-04T04:38:05.618Z,67.9
2017-04-04T04:38:46.096Z,67.8
2017-04-04T04:39:26.567Z,67.9
2017-04-04T04:40:07.074Z,67.8
2017-04-04T04:40:47.588Z,67.99
2017-04-04T04:41:28.115Z,68.18
2017-04-04T04:42:08.602Z,67.99
2017-04-04T04:42:49.091Z,67.99
2017-04-04T04:43:29.594Z,68.57
2017-04-04T04:44:10.093Z,67.9
2017-04-04T04:44:50.588Z,68.47
2017-04-04T04:45:31.069Z,67.9
2017-04-04T04:46:11.619Z,68.09
2017-04-04T04:46:52.115Z,68.38
2017-04-04T04:47:32.611Z,68.38
2017-04-04T04:48:13.112Z,68.28
2017-04-04T04:48:53.649Z,68.18
2017-04-04T04:49:34.135Z,68.28
2017-04-04T04:50:14.643Z,69.04
2017-04-04T04:50:55.155Z,69.01
2017-04-04T04:51:35.646Z,68.95
2017-04-04T04:52:16.141Z,69.04
2017-04-04T04:52:56.638Z,69.04
2017-04-04T04:53:37.166Z,69.1
2017-04-04T04:54:17.624Z,69.77
2017-04-04T04:54:58.136Z,70.06
2017-04-04T04:55:38.602Z,69.9
2017-04-04T04:56:19.083Z,69.9
2017-04-04T04:56:59.606Z,69.39
2017-04-04T04:57:40.090Z,69.62
2017-04-04T04:58:20.609Z,68.95
2017-04-04T04:59:01.069Z,68.85
2017-04-04T04:59:41.625Z,69.33
2017-04-04T05:00:22.180Z,70.06
2017-04-04T05:01:02.639Z,70.34
2017-04-04T05:01:43.129Z,70.34
2017-04-04T05:02:23.606Z,70.34
2017-04-04T05:03:04.098Z,70.63
2017-04-04T05:03:44.648Z,71.11
2017-04-04T05:04:25.095Z,71.01
2017-04-04T05:05:05.584Z,70.63
2017-04-04T05:05:46.082Z,71.01
2017-04-04T05:06:26.582Z,71.11
2017-04-04T05:07:07.055Z,71.2
2017-04-04T05:07:47.588Z,71.2
2017-04-04T05:08:28.085Z,70.72
2017-04-04T05:09:08.573Z,70.63
2017-04-04T05:09:49.088Z,71.2
2017-04-04T05:10:29.536Z,71.01
2017-04-04T05:11:10.364Z,71.11
2017-04-04T05:11:50.820Z,70.92
2017-04-04T05:12:31.354Z,70.92
2017-04-04T05:13:11.835Z,72.02
2017-04-04T05:13:52.371Z,72.31
2017-04-04T05:14:32.854Z,72.31
2017-04-04T05:15:13.348Z,72.25
2017-04-04T05:15:53.828Z,72.34
2017-04-04T05:16:34.336Z,71.87
2017-04-04T05:17:14.888Z,71.96
2017-04-04T05:17:55.359Z,70.92
2017-04-04T05:18:35.871Z,71.68
2017-04-04T05:19:16.476Z,71.11
2017-04-04T05:19:56.951Z,71.2
2017-04-04T05:20:37.410Z,71.2
2017-04-04T05:21:17.908Z,71.2
2017-04-04T05:21:58.402Z,70.72
2017-04-04T05:22:38.928Z,70.72
2017-04-04T05:23:19.423Z,72.82
2017-04-04T05:23:59.896Z,73.91
2017-04-04T05:24:40.395Z,72.96
2017-04-04T05:25:20.927Z,76.86
2017-04-04T05:26:01.516Z,76.01
2017-04-04T05:26:41.901Z,76.54
2017-04-04T05:27:22.351Z,83.83
2017-04-04T05:28:02.825Z,82.4
2017-04-04T05:28:43.343Z,79.06
2017-04-04T05:29:23.851Z,75.62
2017-04-04T05:30:04.387Z,73.33
2017-04-04T05:30:44.895Z,73.14
2017-04-04T05:31:25.393Z,76.01
2017-04-04T05:32:05.872Z,74.77
2017-04-04T05:32:46.341Z,82.24
2017-04-04T05:33:26.863Z,79.28
2017-04-04T05:34:07.338Z,73.81
2017-04-04T05:34:47.872Z,75.53
2017-04-04T05:35:28.364Z,75.85
2017-04-04T05:36:08.822Z,76.52
2017-04-04T05:36:49.322Z,80.43
2017-04-04T05:37:29.798Z,81.38
2017-04-04T05:38:10.406Z,75.09
2017-04-04T05:38:50.865Z,72.48
2017-04-04T05:39:31.437Z,72.48
2017-04-04T05:40:12.098Z,76.1
2017-04-04T05:40:52.359Z,81.1
2017-04-04T05:41:32.899Z,80.81
2017-04-04T05:42:13.522Z,80.43
2017-04-04T05:42:53.870Z,77.95
2017-04-04T05:43:34.353Z,78.14
2017-04-04T05:44:14.898Z,78.23
2017-04-04T05:44:55.398Z,74.38
2017-04-04T05:45:35.899Z,73.33
2017-04-04T05:46:16.378Z,72.57
2017-04-04T05:46:56.914Z,74.77
2017-04-04T05:47:37.440Z,75.53
2017-04-04T05:48:17.886Z,72.28
2017-04-04T05:48:58.409Z,73.62
2017-04-04T05:49:38.908Z,74.96
2017-04-04T05:50:19.577Z,74.99
2017-04-04T05:51:00.009Z,74.13
2017-04-04T05:51:40.450Z,72.42
2017-04-04T05:52:20.988Z,70.98
2017-04-04T05:53:01.477Z,73.37
2017-04-04T05:53:41.954Z,74.52
2017-04-04T05:54:22.449Z,72.99
2017-04-04T05:55:02.943Z,71.46
2017-04-04T05:55:43.437Z,72.89
2017-04-04T05:56:23.922Z,72.03
2017-04-04T05:57:04.468Z,71.08
2017-04-04T05:57:44.923Z,70.42
2017-04-04T05:58:25.418Z,69.17
2017-04-04T05:59:05.953Z,69.37
2017-04-04T05:59:46.473Z,72.99
2017-04-04T06:00:26.973Z,75.37
2017-04-04T06:01:07.499Z,78.81
2017-04-04T06:01:47.984Z,79.38
2017-04-04T06:02:28.500Z,77.09
2017-04-04T06:03:09.020Z,75.76
2017-04-04T06:03:49.496Z,74.32
2017-04-04T06:04:30.033Z,73.5
2017-04-04T06:05:10.530Z,71.56
2017-04-04T06:05:51.075Z,69.37
2017-04-04T06:06:31.571Z,72.42
2017-04-04T06:07:12.039Z,73.85
2017-04-04T06:07:52.532Z,76.75
2017-04-04T06:08:33.024Z,74.17
2017-04-04T06:09:13.587Z,76.65
2017-04-04T06:09:54.042Z,75.03
2017-04-04T06:10:34.558Z,77.65
2017-04-04T06:11:15.033Z,72.55
2017-04-04T06:11:55.599Z,78.85
2017-04-04T06:12:36.121Z,82
2017-04-04T06:13:16.615Z,75.83
2017-04-04T06:13:57.124Z,71.21
2017-04-04T06:14:37.675Z,70.07
2017-04-04T06:15:18.166Z,74.65
2017-04-04T06:15:58.691Z,83.91
2017-04-04T06:16:39.196Z,82.29
2017-04-04T06:17:19.670Z,75.98
2017-04-04T06:18:00.317Z,74.74
2017-04-04T06:18:40.840Z,70.79
2017-04-04T06:19:21.308Z,76.9
2017-04-04T06:20:01.803Z,79.14
2017-04-04T06:20:42.308Z,83.14
2017-04-04T06:21:22.862Z,84.43
2017-04-04T06:22:03.321Z,75.6
2017-04-04T06:22:43.990Z,72.93
2017-04-04T06:23:24.515Z,80.57
2017-04-04T06:24:04.945Z,84.52
2017-04-04T06:24:45.428Z,79.94
2017-04-04T06:25:25.897Z,72.17
2017-04-04T06:26:06.412Z,70.13
2017-04-04T06:26:46.921Z,78.09
2017-04-04T06:27:27.533Z,85.19
2017-04-04T06:28:08.029Z,78.79
2017-04-04T06:28:48.558Z,76.03
2017-04-04T06:29:29.032Z,73.54
2017-04-04T06:30:09.550Z,69.91
2017-04-04T06:30:50.017Z,71.72
2017-04-04T06:31:30.515Z,77.74
2017-04-04T06:32:11.088Z,80.32
2017-04-04T06:32:51.600Z,82.61
2017-04-04T06:33:32.132Z,85.1
2017-04-04T06:34:12.622Z,81.85
2017-04-04T06:34:53.077Z,74.98
2017-04-04T06:35:33.637Z,76.82
2017-04-04T06:36:18.052Z,75.01
2017-04-04T06:36:58.591Z,79.31
2017-04-04T06:37:39.119Z,79.88
2017-04-04T06:38:19.547Z,74.11
2017-04-04T06:39:00.065Z,69.72
2017-04-04T06:39:40.559Z,72.3
2017-04-04T06:40:21.141Z,75.35
2017-04-04T06:41:01.747Z,72.07
2017-04-04T06:41:42.161Z,74.08
2017-04-04T06:42:22.661Z,77.45
2017-04-04T06:43:03.301Z,76.5
2017-04-04T06:43:43.828Z,81.27
2017-04-04T06:44:24.332Z,74.02
2017-04-04T06:45:04.854Z,73.54
2017-04-04T06:45:45.343Z,73.44
2017-04-04T06:46:25.888Z,74.21
2017-04-04T06:47:06.354Z,72.2
2017-04-04T06:47:46.823Z,69.82
2017-04-04T06:48:27.419Z,76.6
2017-04-04T06:49:07.889Z,78.41
2017-04-04T06:49:48.409Z,73.35
2017-04-04T06:50:28.924Z,74.02
2017-04-04T06:51:09.411Z,71.44
2017-04-04T06:51:49.978Z,72.01
2017-04-04T06:53:38.314Z,74.02
2017-04-04T06:54:18.928Z,73.07
2017-04-04T06:54:59.553Z,76.03
2017-04-04T06:55:40.011Z,74.49
2017-04-04T06:56:20.465Z,75.45
2017-04-04T06:57:00.945Z,76.03
2017-04-04T06:57:41.454Z,76.21
2017-04-04T06:58:21.935Z,78.13
2017-04-04T06:59:02.437Z,80.13
2017-04-04T06:59:42.955Z,81.76
2017-04-04T07:00:23.487Z,82.9
2017-04-04T07:01:03.973Z,78.41
2017-04-04T07:01:44.463Z,73.83
2017-04-04T07:02:24.934Z,75.54
2017-04-04T07:03:05.436Z,77.55
2017-04-04T07:03:46.027Z,78.41
2017-04-04T07:04:26.644Z,80.27
2017-04-04T07:05:07.036Z,76.98
2017-04-04T07:05:47.526Z,72.3
2017-04-04T07:06:28.087Z,71.06
2017-04-04T07:07:08.550Z,75.64
2017-04-04T07:07:49.043Z,74.88
2017-04-04T07:08:29.569Z,75.96
2017-04-04T07:09:10.708Z,78.45
2017-04-04T07:09:51.357Z,73.67
2017-04-04T07:10:31.850Z,75.71
2017-04-04T07:11:12.374Z,80.98
2017-04-04T07:11:52.862Z,82.51
2017-04-04T07:12:33.356Z,78.58
2017-04-04T07:13:13.855Z,79.77
2017-04-04T07:13:54.380Z,73.99
2017-04-04T07:14:34.890Z,68.93
2017-04-04T07:15:15.412Z,67.46
2017-04-04T07:15:56.004Z,70.23
2017-04-04T07:16:36.455Z,68.99
2017-04-04T07:17:16.942Z,67.75
2017-04-04T07:17:57.440Z,80.74
2017-04-04T07:18:37.921Z,81.89
2017-04-04T07:19:18.469Z,77.69
2017-04-04T07:19:58.986Z,79.64
2017-04-04T07:20:39.468Z,82.51
2017-04-04T07:21:20.033Z,73.8
2017-04-04T07:22:00.552Z,69.18
2017-04-04T07:22:41.060Z,72.05
2017-04-04T07:23:21.572Z,71.32
2017-04-04T07:24:02.101Z,73.8
2017-04-04T07:24:42.628Z,73.65
2017-04-04T07:25:23.122Z,77.67
2017-04-04T07:26:03.581Z,76.71
2017-04-04T07:26:44.517Z,79.77
2017-04-04T07:27:25.364Z,75.85
2017-04-04T07:28:05.874Z,78.63
2017-04-04T07:29:54.159Z,72.98
2017-04-04T07:30:34.363Z,73.17
2017-04-04T07:31:14.949Z,67.91
2017-04-04T07:31:55.415Z,67.91
2017-04-04T07:32:35.875Z,69.82
2017-04-04T07:33:16.367Z,71.07
2017-04-04T07:33:57.025Z,74.13
2017-04-04T07:34:37.564Z,74.9
2017-04-04T07:35:18.322Z,74.8
2017-04-04T07:35:59.021Z,73.65
2017-04-04T07:36:39.570Z,73.55
2017-04-04T07:37:20.716Z,70.68
2017-04-04T07:38:01.627Z,71.64
2017-04-04T07:38:42.187Z,72.98
2017-04-04T07:39:22.918Z,71.26
2017-04-04T07:40:03.566Z,67.49
2017-04-04T07:40:44.003Z,66.16
2017-04-04T07:41:24.499Z,67.78
2017-04-04T07:42:05.107Z,70.46
2017-04-04T07:42:45.680Z,69.82
2017-04-04T07:43:26.112Z,70.87
2017-04-04T07:44:06.643Z,69.82
2017-04-04T07:44:47.106Z,71.07
2017-04-04T07:45:27.966Z,71.36
2017-04-04T07:46:08.155Z,72.69
2017-04-04T07:46:48.636Z,73.75
2017-04-04T07:47:29.158Z,74.32
2017-04-04T07:48:09.603Z,71.45
2017-04-04T07:48:50.119Z,73.08
2017-04-04T07:49:30.585Z,70.78
2017-04-04T07:50:11.257Z,69.48
2017-04-04T07:50:51.770Z,69.19
2017-04-04T07:51:32.386Z,69.19
2017-04-04T07:52:12.851Z,67.66
2017-04-04T07:52:53.353Z,67.76
2017-04-04T07:53:33.882Z,70.53
2017-04-04T07:54:14.339Z,76.46
2017-04-04T07:54:54.851Z,74.55
2017-04-04T07:55:35.370Z,77.8
2017-04-04T07:56:16.194Z,74.93
2017-04-04T07:56:56.361Z,73.88
2017-04-04T07:57:36.874Z,69.86
2017-04-04T07:58:17.380Z,68.04
2017-04-04T07:58:58.081Z,66.41
2017-04-04T07:59:38.557Z,69.19
2017-04-04T08:00:19.536Z,69.19
2017-04-04T08:00:59.553Z,75.22
2017-04-04T08:01:40.096Z,73.3
2017-04-04T08:02:20.920Z,72.19
2017-04-04T08:03:01.397Z,72.96
2017-04-04T08:03:41.964Z,73.3
2017-04-04T08:04:22.460Z,72.16
2017-04-04T08:05:02.974Z,71.52
2017-04-04T08:05:43.423Z,69.89
2017-04-04T08:06:23.966Z,68.36
2017-04-04T08:07:04.476Z,71.52
2017-04-04T08:07:45.012Z,73.91
2017-04-04T08:08:25.473Z,74.07
2017-04-04T08:09:05.948Z,74.07
2017-04-04T08:09:46.446Z,74.26
2017-04-04T08:10:26.953Z,70.91
2017-04-04T08:11:07.449Z,70.72
2017-04-04T08:11:47.980Z,72.73
2017-04-04T08:12:28.457Z,70.15
2017-04-04T08:13:08.961Z,69.57
2017-04-04T08:13:49.454Z,69.29
2017-04-04T08:14:29.974Z,68.33
2017-04-04T08:15:10.453Z,69.48
2017-04-04T08:15:50.966Z,67.94
2017-04-04T08:16:31.459Z,67.5
2017-04-04T08:17:12.053Z,67.66
2017-04-04T08:17:52.704Z,68.8
2017-04-04T08:18:33.184Z,71.83
2017-04-04T08:19:13.685Z,74.99
2017-04-04T08:19:54.523Z,78.14
2017-04-04T08:20:34.690Z,77
2017-04-04T08:21:15.171Z,74.93
2017-04-04T08:21:55.696Z,73.59
2017-04-04T08:22:36.271Z,73.4
2017-04-04T08:23:16.793Z,71.01
2017-04-04T08:23:57.297Z,72.73
2017-04-04T08:24:37.791Z,69
2017-04-04T08:25:18.336Z,72.73
2017-04-04T08:25:58.866Z,76.84
2017-04-04T08:26:39.335Z,77.04
2017-04-04T08:27:20.245Z,73.88
2017-04-04T08:28:00.780Z,71.39
2017-04-04T08:28:41.236Z,70.34
2017-04-04T08:29:21.723Z,72.16
2017-04-04T08:30:02.295Z,72.63
2017-04-04T08:30:42.821Z,69.29
2017-04-04T08:31:23.284Z,66.32
2017-04-04T08:32:03.842Z,68.07
2017-04-04T08:32:44.365Z,66.32
2017-04-04T08:33:24.880Z,66.32
2017-04-04T08:34:05.365Z,72.44
2017-04-04T08:34:45.923Z,73.69
2017-04-04T08:35:26.405Z,69.48
2017-04-04T08:36:06.891Z,72.54
2017-04-04T08:36:47.461Z,69.09
2017-04-04T08:37:27.889Z,71.48
2017-04-04T08:38:08.368Z,69.19
2017-04-04T08:38:48.900Z,73.02
2017-04-04T08:39:29.403Z,73.97
2017-04-04T08:40:09.892Z,68.42
2017-04-04T08:40:50.503Z,67.37
2017-04-04T08:41:30.905Z,68.9
2017-04-04T08:42:11.438Z,67.85
2017-04-04T08:42:51.914Z,72.34
2017-04-04T08:43:32.449Z,73.75
2017-04-04T08:44:12.995Z,76.18
2017-04-04T08:44:53.439Z,74.07
2017-04-04T08:45:33.920Z,74.77